createdAt,value
2022-12-11T00:02:30.281Z,9.55
2022-12-11T00:05:35.236Z,6.63
2022-12-11T00:08:40.760Z,6.97
2022-12-11T00:11:45.913Z,5.85
2022-12-11T00:14:50.867Z,6.05
2022-12-11T00:17:55.711Z,6.18
2022-12-11T00:21:06.676Z,6.05
2022-12-11T00:24:11.573Z,5.07
2022-12-11T00:27:16.243Z,6.03
2022-12-11T00:30:21.079Z,6.82
2022-12-11T00:33:27.343Z,5.45
2022-12-11T00:36:32.333Z,5.70
2022-12-11T00:39:39.783Z,5.50
2022-12-11T00:42:44.290Z,5.60
2022-12-11T00:45:48.901Z,4.80
2022-12-11T00:48:53.592Z,5.45
2022-12-11T00:51:58.508Z,4.70
2022-12-11T00:55:03.420Z,4.22
2022-12-11T00:58:09.745Z,4.55
2022-12-11T01:01:19.352Z,5.18
2022-12-11T01:04:24.679Z,5.80
2022-12-11T01:07:29.438Z,5.22
2022-12-11T01:10:34.332Z,5.93
2022-12-11T01:13:39.978Z,5.50
2022-12-11T01:16:44.338Z,6.28
2022-12-11T01:19:49.007Z,5.80
2022-12-11T01:23:00.197Z,5.65
2022-12-11T01:26:12.445Z,5.63
2022-12-11T01:29:17.366Z,5.05
2022-12-11T01:32:21.977Z,5.47
2022-12-11T01:35:37.322Z,6.05
2022-12-11T01:38:50.142Z,5.60
2022-12-11T01:42:01.259Z,5.35
2022-12-11T01:45:41.862Z,5.25
2022-12-11T01:48:46.628Z,5.97
2022-12-11T01:52:00.856Z,5.38
2022-12-11T01:58:12.843Z,4.38
2022-12-11T02:01:33.096Z,6.05
2022-12-11T02:04:40.049Z,5.22
2022-12-11T02:07:54.991Z,4.30
2022-12-11T02:11:21.763Z,4.78
2022-12-11T02:14:36.180Z,5.13
2022-12-11T02:18:22.284Z,5.13
2022-12-11T02:21:35.714Z,7.18
2022-12-11T02:25:09.919Z,5.18
2022-12-11T02:32:37.251Z,4.10
2022-12-11T02:35:45.327Z,4.32
2022-12-11T02:38:54.612Z,4.75
2022-12-11T02:42:00.625Z,5.85
2022-12-11T02:45:07.406Z,4.90
2022-12-11T02:48:14.014Z,5.18
2022-12-11T02:51:28.182Z,5.20
2022-12-11T02:54:37.508Z,5.63
2022-12-11T02:57:51.667Z,6.53
2022-12-11T03:04:00.926Z,5.18
2022-12-11T03:07:13.834Z,4.88
2022-12-11T03:10:19.913Z,5.45
2022-12-11T03:13:25.390Z,4.43
2022-12-11T03:16:46.048Z,4.78
2022-12-11T03:20:22.719Z,4.90
2022-12-11T03:23:35.524Z,3.70
2022-12-11T03:26:46.505Z,5.13
2022-12-11T03:30:16.052Z,5.07
2022-12-11T03:33:33.225Z,6.40
2022-12-11T03:36:39.139Z,5.53
2022-12-11T03:39:50.053Z,5.82
2022-12-11T03:42:57.477Z,4.63
2022-12-11T03:46:04.088Z,4.72
2022-12-11T03:49:29.168Z,5.50
2022-12-11T03:52:34.721Z,4.00
2022-12-11T03:55:41.511Z,6.25
2022-12-11T03:58:46.203Z,5.10
2022-12-11T04:01:51.411Z,5.15
2022-12-11T04:04:56.218Z,5.70
2022-12-11T04:08:01.056Z,7.30
2022-12-11T04:11:24.718Z,6.25
2022-12-11T04:14:47.532Z,4.85
2022-12-11T04:18:10.346Z,5.38
2022-12-11T04:21:39.077Z,5.65
2022-12-11T04:24:44.521Z,4.78
2022-12-11T04:27:49.235Z,4.82
2022-12-11T04:30:53.620Z,4.30
2022-12-11T04:33:58.553Z,5.40
2022-12-11T04:37:03.394Z,6.25
2022-12-11T04:40:13.219Z,5.50
2022-12-11T04:43:17.955Z,5.35
2022-12-11T04:46:24.506Z,5.40
2022-12-11T04:49:29.539Z,5.47
2022-12-11T04:52:34.258Z,6.53
2022-12-11T04:55:39.790Z,5.93
2022-12-11T04:58:45.950Z,5.05
2022-12-11T05:01:50.434Z,4.88
2022-12-11T05:04:54.921Z,6.60
2022-12-11T05:07:59.310Z,6.10
2022-12-11T05:11:08.515Z,5.90
2022-12-11T05:14:13.481Z,5.50
2022-12-11T05:17:18.046Z,6.05
2022-12-11T05:20:22.895Z,7.25
2022-12-11T05:23:28.452Z,6.00
2022-12-11T05:26:33.153Z,4.95
2022-12-11T05:29:38.205Z,5.82
2022-12-11T05:32:42.416Z,5.47
2022-12-11T05:35:48.278Z,4.95
2022-12-11T05:38:54.181Z,5.80
2022-12-11T05:41:58.990Z,6.10
2022-12-11T05:45:04.972Z,7.38
2022-12-11T05:48:09.502Z,5.93
2022-12-11T05:51:15.379Z,5.38
2022-12-11T05:54:20.030Z,6.70
2022-12-11T05:57:24.391Z,6.00
2022-12-11T06:00:34.397Z,7.05
2022-12-11T06:03:40.655Z,5.57
2022-12-11T06:06:45.321Z,5.35
2022-12-11T06:09:49.825Z,6.10
2022-12-11T06:12:54.400Z,6.25
2022-12-11T06:16:04.022Z,6.55
2022-12-11T06:19:15.163Z,6.78
2022-12-11T06:22:19.482Z,6.03
2022-12-11T06:25:24.070Z,6.15
2022-12-11T06:28:28.355Z,6.00
2022-12-11T06:31:33.145Z,6.50
2022-12-11T06:34:37.769Z,6.05
2022-12-11T06:37:42.640Z,6.50
2022-12-11T06:40:56.285Z,5.78
2022-12-11T06:44:01.220Z,7.40
2022-12-11T06:47:05.811Z,7.35
2022-12-11T06:50:10.734Z,6.25
2022-12-11T06:53:16.234Z,5.40
2022-12-11T06:56:22.574Z,5.45
2022-12-11T06:59:27.661Z,7.40
2022-12-11T07:02:32.414Z,5.90
2022-12-11T07:05:37.290Z,6.93
2022-12-11T07:08:43.327Z,6.25
2022-12-11T07:11:53.408Z,5.95
2022-12-11T07:14:58.015Z,5.60
2022-12-11T07:18:02.832Z,5.97
2022-12-11T07:21:09.747Z,5.50
2022-12-11T07:24:14.498Z,5.88
2022-12-11T07:27:19.253Z,6.18
2022-12-11T07:30:25.245Z,5.63
2022-12-11T07:33:29.464Z,5.95
2022-12-11T07:36:34.598Z,6.60
2022-12-11T07:39:39.419Z,5.15
2022-12-11T07:42:46.313Z,6.05
2022-12-11T07:45:51.139Z,5.80
2022-12-11T07:48:56.153Z,6.00
2022-12-11T07:52:00.994Z,5.13
2022-12-11T07:55:06.150Z,6.18
2022-12-11T07:58:10.928Z,4.75
2022-12-11T08:01:19.567Z,5.25
2022-12-11T08:04:24.796Z,5.28
2022-12-11T08:07:30.252Z,6.05
2022-12-11T08:10:34.550Z,7.00
2022-12-11T08:13:40.331Z,5.75
2022-12-11T08:16:45.196Z,5.07
2022-12-11T08:19:50.077Z,5.75
2022-12-11T08:22:59.206Z,5.47
2022-12-11T08:26:07.343Z,4.97
2022-12-11T08:29:12.333Z,5.43
2022-12-11T08:32:18.062Z,5.70
2022-12-11T08:35:22.472Z,5.32
2022-12-11T08:38:27.252Z,5.07
2022-12-11T08:41:31.673Z,4.55
2022-12-11T08:44:36.402Z,4.55
2022-12-11T08:47:41.249Z,5.15
2022-12-11T08:50:45.938Z,4.90
2022-12-11T08:53:51.646Z,5.15
2022-12-11T08:56:58.283Z,5.07
2022-12-11T09:00:03.761Z,4.72
2022-12-11T09:03:12.777Z,4.43
2022-12-11T09:06:21.420Z,4.70
2022-12-11T09:09:26.109Z,4.28
2022-12-11T09:12:31.278Z,4.60
2022-12-11T09:15:36.314Z,4.55
2022-12-11T09:18:41.454Z,4.97
2022-12-11T09:21:46.525Z,4.28
2022-12-11T09:24:51.083Z,4.68
2022-12-11T09:27:55.968Z,4.68
2022-12-11T09:31:00.861Z,3.80
2022-12-11T09:34:09.508Z,4.70
2022-12-11T09:37:14.144Z,5.05
2022-12-11T09:40:18.784Z,4.97
2022-12-11T09:43:42.400Z,4.63
2022-12-11T09:46:48.765Z,4.85
2022-12-11T09:50:05.578Z,5.47
2022-12-11T09:53:30.980Z,5.00
2022-12-11T09:56:52.631Z,6.32
2022-12-11T10:00:04.732Z,5.50
2022-12-11T10:03:58.924Z,6.23
2022-12-11T10:07:15.514Z,4.90
2022-12-11T10:10:59.465Z,4.78
2022-12-11T10:14:20.162Z,4.03
2022-12-11T10:17:34.185Z,4.97
2022-12-11T10:20:40.432Z,3.90
2022-12-11T10:23:56.470Z,4.22
2022-12-11T10:27:15.193Z,4.63
2022-12-11T10:30:34.183Z,3.92
2022-12-11T10:33:51.206Z,5.00
2022-12-11T10:37:00.440Z,4.18
2022-12-11T10:40:06.863Z,3.85
2022-12-11T10:43:12.336Z,4.47
2022-12-11T10:46:19.833Z,4.28
2022-12-11T10:49:28.492Z,4.57
2022-12-11T10:52:38.472Z,4.13
2022-12-11T10:55:48.221Z,5.03
2022-12-11T10:58:53.733Z,4.22
2022-12-11T11:01:58.734Z,4.70
2022-12-11T11:05:31.913Z,4.88
2022-12-11T11:08:46.142Z,4.18
2022-12-11T11:11:51.299Z,4.70
2022-12-11T11:15:05.487Z,5.30
2022-12-11T11:18:18.088Z,4.13
2022-12-11T11:21:26.008Z,5.80
2022-12-11T11:24:58.119Z,4.97
2022-12-11T11:28:06.763Z,4.60
2022-12-11T11:31:13.965Z,5.10
2022-12-11T11:34:26.308Z,4.55
2022-12-11T11:37:33.617Z,5.25
2022-12-11T11:41:14.712Z,5.53
2022-12-11T11:44:31.116Z,4.82
2022-12-11T11:47:44.639Z,5.53
2022-12-11T11:50:50.592Z,5.40
2022-12-11T11:54:00.099Z,6.32
2022-12-11T11:57:17.614Z,6.68
2022-12-11T12:00:33.334Z,6.10
2022-12-11T12:03:38.404Z,6.95
2022-12-11T12:06:50.921Z,6.28
2022-12-11T12:10:04.166Z,6.35
2022-12-11T12:13:49.275Z,5.85
2022-12-11T12:17:10.757Z,6.45
2022-12-11T12:21:05.426Z,6.60
2022-12-11T12:25:16.446Z,6.28
2022-12-11T12:28:51.794Z,5.75
2022-12-11T12:32:18.087Z,6.07
2022-12-11T12:35:54.006Z,5.95
2022-12-11T12:39:01.989Z,5.15
2022-12-11T12:42:50.606Z,5.68
2022-12-11T12:45:55.486Z,6.45
2022-12-11T12:49:02.449Z,6.20
2022-12-11T12:52:20.918Z,5.93
2022-12-11T12:55:31.726Z,6.18
2022-12-11T12:58:39.258Z,5.85
2022-12-11T13:01:49.756Z,5.55
2022-12-11T13:05:04.328Z,5.80
2022-12-11T13:08:11.801Z,6.45
2022-12-11T13:11:19.977Z,7.63
2022-12-11T13:14:32.463Z,6.03
2022-12-11T13:17:39.198Z,7.20
2022-12-11T13:20:51.181Z,6.10
2022-12-11T13:24:14.444Z,7.85
2022-12-11T13:27:36.583Z,7.45
2022-12-11T13:30:41.456Z,6.72
2022-12-11T13:33:53.502Z,7.55
2022-12-11T13:36:58.828Z,7.65
2022-12-11T13:40:19.913Z,9.32
2022-12-11T13:43:29.229Z,7.70
2022-12-11T13:46:37.892Z,7.97
2022-12-11T13:49:46.130Z,7.72
2022-12-11T13:52:56.311Z,6.57
2022-12-11T13:56:18.716Z,6.20
2022-12-11T13:59:30.112Z,6.65
2022-12-11T14:02:38.901Z,6.05
2022-12-11T14:05:43.603Z,6.05
2022-12-11T14:08:54.940Z,5.68
2022-12-11T14:11:59.609Z,5.35
2022-12-11T14:15:05.374Z,5.85
2022-12-11T14:18:20.170Z,5.15
2022-12-11T14:21:25.976Z,6.38
2022-12-11T14:24:32.908Z,7.10
2022-12-11T14:27:46.887Z,7.38
2022-12-11T14:30:52.785Z,6.63
2022-12-11T14:34:12.651Z,4.97
2022-12-11T14:37:20.973Z,5.78
2022-12-11T14:40:37.155Z,5.65
2022-12-11T14:43:51.302Z,5.00
2022-12-11T14:47:05.012Z,4.78
2022-12-11T14:50:27.668Z,4.55
2022-12-11T14:53:38.512Z,4.88
2022-12-11T14:56:45.412Z,4.90
2022-12-11T14:59:53.022Z,6.13
2022-12-11T15:03:12.442Z,5.22
2022-12-11T15:06:29.573Z,5.13
2022-12-11T15:09:34.246Z,6.47
2022-12-11T15:12:45.303Z,5.82
2022-12-11T15:15:50.773Z,6.07
2022-12-11T15:18:56.936Z,6.00
2022-12-11T15:22:08.110Z,5.80
2022-12-11T15:25:28.199Z,5.25
2022-12-11T15:28:36.724Z,6.70
2022-12-11T15:31:41.292Z,6.85
2022-12-11T15:34:56.416Z,6.22
2022-12-11T15:38:01.095Z,6.15
2022-12-11T15:41:13.389Z,5.43
2022-12-11T15:44:22.292Z,5.80
2022-12-11T15:47:30.067Z,5.43
2022-12-11T15:50:35.102Z,5.07
2022-12-11T15:53:40.001Z,6.03
2022-12-11T15:56:44.896Z,5.20
2022-12-11T15:59:52.923Z,5.32
2022-12-11T16:02:58.349Z,4.45
2022-12-11T16:06:03.297Z,6.45
2022-12-11T16:09:07.857Z,6.35
2022-12-11T16:12:14.314Z,8.85
2022-12-11T16:15:23.406Z,9.27
2022-12-11T16:18:28.772Z,7.43
2022-12-11T16:21:33.829Z,7.40
2022-12-11T16:24:39.518Z,8.25
2022-12-11T16:27:44.417Z,7.38
2022-12-11T16:30:49.993Z,7.15
2022-12-11T16:33:54.720Z,6.05
2022-12-11T16:37:00.108Z,6.03
2022-12-11T16:40:06.682Z,6.38
2022-12-11T16:43:11.668Z,5.88
2022-12-11T16:46:21.751Z,5.85
2022-12-11T16:49:26.242Z,6.35
2022-12-11T16:52:33.277Z,6.95
2022-12-11T16:55:39.747Z,6.43
2022-12-11T16:58:44.635Z,5.68
2022-12-11T17:01:50.660Z,5.32
2022-12-11T17:04:55.442Z,6.07
2022-12-11T17:08:00.418Z,6.40
2022-12-11T17:11:07.393Z,5.93
2022-12-11T17:14:12.634Z,5.15
2022-12-11T17:17:17.506Z,6.68
2022-12-11T17:20:22.628Z,6.43
2022-12-11T17:23:27.517Z,4.78
2022-12-11T17:26:33.266Z,6.03
2022-12-11T17:29:38.013Z,7.10
2022-12-11T17:32:42.854Z,6.22
2022-12-11T17:35:47.626Z,6.00
2022-12-11T17:38:52.326Z,6.88
2022-12-11T17:41:57.482Z,6.47
2022-12-11T17:45:02.283Z,6.65
2022-12-11T17:48:06.963Z,6.65
2022-12-11T17:51:14.619Z,6.10
2022-12-11T17:54:20.135Z,5.80
2022-12-11T17:57:25.124Z,6.05
2022-12-11T18:00:33.222Z,5.68
2022-12-11T18:03:38.245Z,5.95
2022-12-11T18:06:43.446Z,6.07
2022-12-11T18:09:47.971Z,6.32
2022-12-11T18:12:53.418Z,6.13
2022-12-11T18:16:17.596Z,5.68
2022-12-11T18:19:23.028Z,5.53
2022-12-11T18:22:27.818Z,7.15
2022-12-11T18:25:32.968Z,8.77
2022-12-11T18:28:37.890Z,7.45
2022-12-11T18:31:43.100Z,6.15
2022-12-11T18:34:48.112Z,6.50
2022-12-11T18:37:52.934Z,7.13
2022-12-11T18:40:57.893Z,4.90
2022-12-11T18:44:09.285Z,5.90
2022-12-11T18:47:14.522Z,6.00
2022-12-11T18:50:19.027Z,5.22
2022-12-11T18:53:23.957Z,5.75
2022-12-11T18:56:28.661Z,5.50
2022-12-11T18:59:33.947Z,5.88
2022-12-11T19:02:38.314Z,5.20
2022-12-11T19:05:43.825Z,5.10
2022-12-11T19:08:48.466Z,5.60
2022-12-11T19:11:53.580Z,5.47
2022-12-11T19:14:58.605Z,6.68
2022-12-11T19:18:03.991Z,5.18
2022-12-11T19:21:13.519Z,5.35
2022-12-11T19:24:22.602Z,5.95
2022-12-11T19:27:27.491Z,4.85
2022-12-11T19:30:32.360Z,5.25
2022-12-11T19:33:37.298Z,4.90
2022-12-11T19:36:41.781Z,4.75
2022-12-11T19:39:46.624Z,5.47
2022-12-11T19:42:51.042Z,5.15
2022-12-11T19:45:55.459Z,5.50
2022-12-11T19:49:01.246Z,4.95
2022-12-11T19:52:05.654Z,5.57
2022-12-11T19:55:13.394Z,5.60
2022-12-11T19:58:19.499Z,6.13
2022-12-11T20:01:30.983Z,4.82
2022-12-11T20:04:35.758Z,5.05
2022-12-11T20:07:40.575Z,4.55
2022-12-11T20:10:45.258Z,5.60
2022-12-11T20:13:51.245Z,5.65
2022-12-11T20:17:14.029Z,5.85
2022-12-11T20:20:19.433Z,5.28
2022-12-11T20:23:24.391Z,4.80
2022-12-11T20:26:31.021Z,4.72
2022-12-11T20:29:35.601Z,5.57
2022-12-11T20:32:40.604Z,5.25
2022-12-11T20:35:46.080Z,5.38
2022-12-11T20:38:51.506Z,5.40
2022-12-11T20:41:56.500Z,4.78
2022-12-11T20:45:01.477Z,5.05
2022-12-11T20:48:06.632Z,4.88
2022-12-11T20:51:18.596Z,5.05
2022-12-11T20:54:27.108Z,4.57
2022-12-11T20:57:32.119Z,5.50
2022-12-11T21:00:39.858Z,5.10
2022-12-11T21:03:44.606Z,4.97
2022-12-11T21:06:55.434Z,5.57
2022-12-11T21:10:00.401Z,5.65
2022-12-11T21:13:05.234Z,5.78
2022-12-11T21:16:11.294Z,6.05
2022-12-11T21:19:17.116Z,5.20
2022-12-11T21:22:22.057Z,5.13
2022-12-11T21:25:27.283Z,5.10
2022-12-11T21:28:35.395Z,5.57
2022-12-11T21:31:40.538Z,6.07
2022-12-11T21:34:45.514Z,5.63
2022-12-11T21:37:50.321Z,6.05
2022-12-11T21:40:57.639Z,5.80
2022-12-11T21:45:21.197Z,5.70
2022-12-11T21:47:28.470Z,6.40
2022-12-11T21:50:33.253Z,7.20
2022-12-11T21:53:38.262Z,6.07
2022-12-11T21:56:44.035Z,5.78
2022-12-11T21:59:48.969Z,6.15
2022-12-11T22:02:53.944Z,5.88
2022-12-11T22:05:58.550Z,6.15
2022-12-11T22:09:05.135Z,5.80
2022-12-11T22:12:22.165Z,5.30
2022-12-11T22:15:26.760Z,5.68
2022-12-11T22:18:31.835Z,5.78
2022-12-11T22:21:37.052Z,4.97
2022-12-11T22:24:41.799Z,5.13
2022-12-11T22:27:46.040Z,6.50
2022-12-11T22:30:51.142Z,5.20
2022-12-11T22:33:56.507Z,5.53
2022-12-11T22:37:02.459Z,5.97
2022-12-11T22:40:07.479Z,5.38
2022-12-11T22:43:12.386Z,5.68
2022-12-11T22:46:19.163Z,5.95
2022-12-11T22:49:23.508Z,6.07
2022-12-11T22:52:27.840Z,5.55
2022-12-11T22:55:34.065Z,5.95
2022-12-11T22:58:39.263Z,5.95
2022-12-11T23:01:44.064Z,5.55
2022-12-11T23:04:49.002Z,5.45
2022-12-11T23:07:53.595Z,6.10
2022-12-11T23:10:58.013Z,5.32
2022-12-11T23:14:07.667Z,5.40
2022-12-11T23:17:12.484Z,5.80
2022-12-11T23:20:17.622Z,5.80
2022-12-11T23:23:22.329Z,6.20
2022-12-11T23:26:28.964Z,5.03
2022-12-11T23:29:33.557Z,6.10
2022-12-11T23:32:38.252Z,5.75
2022-12-11T23:35:42.925Z,5.10
2022-12-11T23:38:54.158Z,5.32
2022-12-11T23:41:58.987Z,5.28
2022-12-11T23:45:04.040Z,5.45
2022-12-11T23:48:08.681Z,5.18
2022-12-11T23:51:16.992Z,6.03
2022-12-11T23:54:21.571Z,5.75
2022-12-11T23:57:26.248Z,5.75
